This demonstration page uses our WeatherBlox Daily Observations layout. Learn more.

39.29038, -76.61219

Hourly Observations for June 30, 2019

Temp ( °F °C ) Dew Point ( °F °C ) Humidity (%) Winds ( mph kmh ) Pressure ( in mb ) Visibility ( mi km ) Precip ( " mm )
12:54 am 00:54 undefined 76 24.4 71 21.7 85 85 undefined N/A 29.94 1014 N/A 0 0
1:54 am 01:54 undefined 76 24.4 67 19.4 74 74 undefined N/A 29.91 1013 N/A 0 0
2:54 am 02:54 undefined 76 24.4 65 18.3 69 69 undefined N/A 29.85 1011 N/A 0 0
3:54 am 03:54 undefined 76 24.4 65 18.3 69 69 undefined N/A 29.85 1011 N/A 0 0
4:54 am 04:54 undefined 76 24.4 65 18.3 69 69 undefined N/A 29.85 1011 N/A 0 0
5:54 am 05:54 undefined 75 23.9 65 18.3 71 71 undefined N/A 29.85 1011 N/A 0 0
6:54 am 06:54 undefined 77 25 63 17.2 62 62 undefined N/A 29.85 1011 N/A 0 0
7:54 am 07:54 undefined 79 26.1 65 18.3 62 62 undefined N/A 29.85 1011 N/A 0 0
8:54 am 08:54 undefined 81 27.2 65 18.3 58 58 undefined N/A 29.85 1011 N/A 0 0
9:54 am 09:54 undefined 85 29.4 63 17.2 48 48 undefined N/A 29.85 1011 N/A 0 0
10:54 am 10:54 undefined 86 30 59 15 40 40 undefined N/A 29.85 1011 N/A 0 0
11:54 am 11:54 undefined 88 31.1 57 13.9 35 35 undefined N/A 29.83 1010 N/A 0 0
12:54 pm 12:54 undefined 89 31.7 59 15 36 36 undefined N/A 29.83 1010 N/A 0 0
1:54 pm 13:54 undefined 89 31.7 57 13.9 34 34 undefined N/A 29.8 1009 N/A 0 0
2:54 pm 14:54 undefined 91 32.8 56 13.3 31 31 undefined N/A 29.8 1009 N/A 0 0
3:54 pm 15:54 undefined 91 32.8 56 13.3 31 31 undefined N/A 29.8 1009 N/A 0 0
4:54 pm 16:54 undefined 91 32.8 55 12.8 30 30 undefined N/A 29.77 1008 N/A 0 0
5:54 pm 17:54 undefined 90 32.2 55 12.8 31 31 undefined N/A 29.77 1008 N/A 0 0
6:54 pm 18:54 undefined 88 31.1 54 12.2 31 31 undefined N/A 29.8 1009 N/A 0 0
7:54 pm 19:54 undefined 87 30.6 54 12.2 32 32 undefined N/A 29.8 1009 N/A 0 0
8:54 pm 20:54 undefined 85 29.4 55 12.8 36 36 undefined N/A 29.83 1010 N/A 0 0
9:54 pm 21:54 undefined 83 28.3 56 13.3 40 40 undefined N/A 29.85 1011 N/A 0 0
10:54 pm 22:54 undefined 79 26.1 56 13.3 45 45 undefined N/A 29.88 1012 N/A 0 0
11:54 pm 23:54 undefined 77 25 54 12.2 45 45 undefined N/A 29.91 1013 N/A 0 0

Powered by AerisWeather